createdAt,value
2019-01-29T00:01:22.344Z,74.89
2019-01-29T00:03:51.638Z,75.18
2019-01-29T00:06:20.926Z,75.20
2019-01-29T00:08:51.659Z,75.21
2019-01-29T00:11:20.905Z,74.94
2019-01-29T00:13:50.197Z,74.72
2019-01-29T00:16:19.471Z,74.53
2019-01-29T00:18:48.731Z,74.88
2019-01-29T00:21:18.035Z,75.17
2019-01-29T00:23:47.355Z,75.05
2019-01-29T00:26:16.601Z,75.04
2019-01-29T00:28:46.517Z,75.00
2019-01-29T00:31:15.892Z,75.18
2019-01-29T00:33:45.143Z,75.15
2019-01-29T00:36:14.534Z,74.85
2019-01-29T00:38:43.789Z,74.80
2019-01-29T00:41:13.077Z,74.48
2019-01-29T00:43:42.337Z,74.37
2019-01-29T00:46:11.608Z,74.20
2019-01-29T00:48:40.886Z,74.03
2019-01-29T00:51:10.150Z,73.83
2019-01-29T00:53:39.414Z,73.88
2019-01-29T00:56:08.662Z,73.49
2019-01-29T00:58:37.936Z,73.25
2019-01-29T01:01:07.354Z,73.05
2019-01-29T01:03:36.647Z,73.11
2019-01-29T01:06:06.073Z,72.92
2019-01-29T01:08:35.340Z,72.81
2019-01-29T01:11:04.624Z,72.92
2019-01-29T01:13:33.879Z,72.77
2019-01-29T01:16:03.152Z,72.87
2019-01-29T01:18:32.390Z,72.76
2019-01-29T01:21:01.663Z,72.94
2019-01-29T01:23:30.934Z,73.03
2019-01-29T01:26:00.214Z,73.05
2019-01-29T01:28:29.544Z,72.92
2019-01-29T01:30:58.806Z,73.13
2019-01-29T01:33:28.103Z,73.28
2019-01-29T01:35:57.384Z,73.24
2019-01-29T01:38:26.708Z,72.97
2019-01-29T01:40:56.006Z,72.70
2019-01-29T01:43:27.049Z,73.09
2019-01-29T01:45:56.340Z,73.21
2019-01-29T01:48:25.601Z,73.04
2019-01-29T01:50:54.882Z,73.38
2019-01-29T01:53:24.259Z,73.43
2019-01-29T01:55:53.507Z,73.56
2019-01-29T01:58:22.774Z,73.82
2019-01-29T02:00:52.631Z,74.04
2019-01-29T02:03:21.919Z,73.76
2019-01-29T02:05:51.199Z,73.86
2019-01-29T02:08:20.479Z,73.86
2019-01-29T02:10:51.607Z,74.22
2019-01-29T02:13:20.872Z,74.03
2019-01-29T02:15:50.179Z,74.33
2019-01-29T02:18:19.419Z,74.19
2019-01-29T02:20:48.797Z,74.38
2019-01-29T02:23:18.085Z,74.54
2019-01-29T02:25:49.705Z,74.38
2019-01-29T02:28:18.971Z,74.63
2019-01-29T02:30:48.249Z,74.78
2019-01-29T02:33:18.432Z,74.40
2019-01-29T02:35:47.767Z,74.36
2019-01-29T02:38:18.456Z,74.33
2019-01-29T02:40:47.706Z,74.41
2019-01-29T02:43:16.986Z,74.32
2019-01-29T02:45:46.271Z,74.21
2019-01-29T02:48:15.615Z,74.20
2019-01-29T02:50:44.898Z,74.23
2019-01-29T02:53:18.363Z,74.37
2019-01-29T02:55:45.165Z,73.98
2019-01-29T02:58:14.439Z,74.15
2019-01-29T03:00:43.705Z,74.17
2019-01-29T03:03:12.952Z,74.02
2019-01-29T03:05:42.326Z,73.91
2019-01-29T03:08:11.570Z,74.11
2019-01-29T03:10:40.844Z,74.15
2019-01-29T03:13:10.118Z,74.32
2019-01-29T03:15:39.425Z,73.59
2019-01-29T03:18:08.732Z,73.84
2019-01-29T03:20:37.982Z,74.08
2019-01-29T03:23:07.283Z,73.73
2019-01-29T03:25:36.538Z,73.70
2019-01-29T03:28:07.270Z,73.79
2019-01-29T03:30:36.571Z,73.56
2019-01-29T03:33:05.843Z,73.44
2019-01-29T03:35:35.101Z,73.61
2019-01-29T03:38:04.353Z,73.58
2019-01-29T03:40:33.618Z,73.70
2019-01-29T03:43:02.867Z,73.58
2019-01-29T03:45:32.150Z,73.53
2019-01-29T03:48:01.423Z,73.54
2019-01-29T03:50:30.701Z,73.55
2019-01-29T03:53:00.310Z,73.19
2019-01-29T03:55:29.566Z,73.56
2019-01-29T03:57:58.848Z,73.51
2019-01-29T04:00:28.563Z,73.52
2019-01-29T04:02:57.836Z,73.57
2019-01-29T04:05:27.102Z,73.74
2019-01-29T04:07:56.445Z,73.66
2019-01-29T04:10:26.935Z,73.53
2019-01-29T04:12:56.192Z,73.39
2019-01-29T04:15:25.562Z,73.26
2019-01-29T04:17:59.563Z,73.37
2019-01-29T04:20:29.056Z,73.37
2019-01-29T04:22:58.302Z,73.20
2019-01-29T04:25:27.666Z,73.16
2019-01-29T04:27:56.926Z,73.10
2019-01-29T04:30:26.315Z,72.94
2019-01-29T04:32:55.586Z,73.03
2019-01-29T04:35:24.877Z,72.69
2019-01-29T04:37:54.151Z,72.45
2019-01-29T04:40:23.446Z,72.31
2019-01-29T04:42:52.722Z,72.50
2019-01-29T04:45:23.192Z,72.44
2019-01-29T04:47:52.906Z,72.72
2019-01-29T04:50:23.536Z,72.09
2019-01-29T04:52:52.809Z,72.37
2019-01-29T04:55:23.595Z,72.18
2019-01-29T04:57:52.866Z,72.15
2019-01-29T05:00:27.260Z,72.07
2019-01-29T05:02:56.592Z,72.10
2019-01-29T05:05:25.862Z,72.23
2019-01-29T05:07:55.146Z,72.18
2019-01-29T05:10:24.392Z,72.22
2019-01-29T05:12:53.709Z,72.44
2019-01-29T05:15:22.964Z,72.38
2019-01-29T05:17:54.078Z,72.28
2019-01-29T05:20:24.117Z,72.30
2019-01-29T05:22:54.470Z,72.30
2019-01-29T05:25:23.743Z,72.04
2019-01-29T05:27:52.995Z,72.27
2019-01-29T05:30:24.403Z,71.97
2019-01-29T05:32:53.958Z,72.02
2019-01-29T05:35:23.467Z,72.16
2019-01-29T05:37:52.758Z,72.05
2019-01-29T05:40:23.554Z,72.26
2019-01-29T05:42:52.841Z,72.15
2019-01-29T05:45:23.103Z,72.17
2019-01-29T05:47:52.560Z,72.08
2019-01-29T05:50:22.160Z,72.13
2019-01-29T05:52:53.507Z,72.21
2019-01-29T05:55:23.471Z,72.27
2019-01-29T05:57:53.391Z,72.31
2019-01-29T06:00:27.537Z,72.48
2019-01-29T06:02:57.449Z,72.57
2019-01-29T06:05:28.614Z,72.69
2019-01-29T06:07:58.507Z,72.79
2019-01-29T06:10:28.250Z,73.12
2019-01-29T06:12:57.524Z,72.99
2019-01-29T06:15:27.290Z,72.78
2019-01-29T06:17:56.668Z,72.63
2019-01-29T06:20:27.567Z,72.67
2019-01-29T06:22:57.326Z,72.76
2019-01-29T06:25:27.799Z,72.52
2019-01-29T06:27:57.492Z,72.58
2019-01-29T06:30:27.473Z,72.34
2019-01-29T06:32:58.685Z,72.53
2019-01-29T06:35:28.151Z,72.09
2019-01-29T06:37:57.729Z,72.29
2019-01-29T06:40:28.619Z,72.29
2019-01-29T06:42:58.414Z,72.31
2019-01-29T06:45:27.964Z,72.43
2019-01-29T06:47:58.917Z,72.40
2019-01-29T06:50:28.681Z,72.30
2019-01-29T06:52:57.959Z,72.26
2019-01-29T06:55:27.321Z,72.15
2019-01-29T06:57:56.581Z,71.41
2019-01-29T07:00:28.140Z,71.31
2019-01-29T07:02:58.219Z,71.69
2019-01-29T07:05:27.482Z,71.74
2019-01-29T07:07:56.854Z,71.53
2019-01-29T07:10:26.543Z,71.42
2019-01-29T07:12:55.939Z,71.45
2019-01-29T07:15:43.952Z,71.60
2019-01-29T07:18:30.674Z,71.53
2019-01-29T07:21:00.084Z,71.38
2019-01-29T07:23:30.471Z,71.43
2019-01-29T07:25:59.844Z,71.57
2019-01-29T07:28:29.198Z,71.16
2019-01-29T07:30:58.538Z,71.22
2019-01-29T07:33:27.882Z,71.10
2019-01-29T07:35:57.241Z,71.18
2019-01-29T07:38:27.620Z,71.11
2019-01-29T07:40:56.938Z,71.12
2019-01-29T07:43:26.280Z,71.46
2019-01-29T07:45:55.637Z,71.29
2019-01-29T07:48:26.110Z,71.29
2019-01-29T07:50:55.230Z,71.54
2019-01-29T07:53:24.571Z,71.06
2019-01-29T07:55:53.873Z,71.29
2019-01-29T07:58:23.170Z,71.28
2019-01-29T08:00:52.475Z,71.14
2019-01-29T08:03:21.729Z,70.63
2019-01-29T08:05:50.996Z,70.86
2019-01-29T08:08:20.278Z,71.03
2019-01-29T08:10:49.549Z,71.87
2019-01-29T08:13:18.814Z,70.75
2019-01-29T08:15:48.136Z,71.12
2019-01-29T08:18:17.621Z,70.86
2019-01-29T08:20:46.892Z,70.82
2019-01-29T08:23:16.162Z,71.09
2019-01-29T08:25:47.870Z,71.14
2019-01-29T08:28:16.428Z,71.16
2019-01-29T08:30:45.689Z,70.88
2019-01-29T08:33:15.071Z,71.16
2019-01-29T08:35:44.353Z,70.75
2019-01-29T08:38:15.084Z,70.89
2019-01-29T08:40:44.359Z,70.53
2019-01-29T08:43:13.646Z,70.63
2019-01-29T08:45:42.936Z,70.44
2019-01-29T08:48:12.216Z,70.13
2019-01-29T08:50:41.467Z,70.13
2019-01-29T08:53:10.754Z,70.01
2019-01-29T08:55:40.008Z,70.16
2019-01-29T08:58:09.255Z,70.52
2019-01-29T09:00:39.575Z,70.32
2019-01-29T09:03:08.834Z,70.24
2019-01-29T09:05:38.102Z,70.29
2019-01-29T09:08:07.954Z,70.58
2019-01-29T09:10:37.258Z,70.14
2019-01-29T09:13:06.533Z,70.11
2019-01-29T09:15:35.803Z,69.91
2019-01-29T09:18:05.546Z,69.80
2019-01-29T09:20:34.823Z,69.59
2019-01-29T09:23:04.070Z,69.63
2019-01-29T09:25:33.318Z,69.75
2019-01-29T09:28:02.592Z,69.47
2019-01-29T09:30:31.850Z,69.12
2019-01-29T09:33:01.166Z,69.17
2019-01-29T09:35:30.639Z,69.21
2019-01-29T09:37:59.899Z,69.37
2019-01-29T09:40:29.150Z,69.46
2019-01-29T09:42:58.398Z,70.01
2019-01-29T09:45:27.875Z,70.46
2019-01-29T09:47:57.127Z,70.61
2019-01-29T09:50:26.790Z,71.05
2019-01-29T09:52:56.084Z,71.08
2019-01-29T09:55:29.246Z,71.26
2019-01-29T09:57:57.049Z,71.75
2019-01-29T10:00:34.887Z,71.82
2019-01-29T10:03:04.470Z,72.22
2019-01-29T10:05:33.800Z,72.30
2019-01-29T10:08:03.189Z,72.46
2019-01-29T10:10:32.486Z,73.40
2019-01-29T10:13:01.758Z,73.17
2019-01-29T10:15:32.845Z,72.13
2019-01-29T10:18:02.289Z,71.70
2019-01-29T10:20:33.091Z,70.34
2019-01-29T10:23:02.442Z,69.48
2019-01-29T10:25:37.617Z,68.73
2019-01-29T10:28:02.848Z,66.51
2019-01-29T10:30:33.547Z,66.01
2019-01-29T10:33:02.817Z,64.77
2019-01-29T10:35:32.273Z,61.01
2019-01-29T10:38:01.540Z,60.06
2019-01-29T10:40:31.121Z,59.50
2019-01-29T10:43:00.463Z,58.90
2019-01-29T10:45:30.546Z,58.01
2019-01-29T10:47:59.854Z,59.06
2019-01-29T10:50:30.157Z,61.00
2019-01-29T10:52:59.789Z,61.66
2019-01-29T10:55:29.381Z,62.21
2019-01-29T10:57:58.734Z,62.61
2019-01-29T11:00:34.077Z,63.40
2019-01-29T11:03:03.350Z,62.85
2019-01-29T11:05:33.144Z,63.21
2019-01-29T11:08:02.593Z,63.18
2019-01-29T11:10:31.855Z,63.53
2019-01-29T11:13:01.127Z,63.65
2019-01-29T11:15:33.863Z,63.00
2019-01-29T11:18:03.303Z,63.34
2019-01-29T11:20:32.786Z,62.90
2019-01-29T11:23:02.062Z,62.92
2019-01-29T11:25:31.365Z,62.47
2019-01-29T11:28:00.640Z,61.92
2019-01-29T11:30:30.794Z,62.00
2019-01-29T11:33:00.282Z,61.73
2019-01-29T11:35:29.837Z,62.24
2019-01-29T11:38:00.210Z,61.58
2019-01-29T11:40:30.546Z,60.90
2019-01-29T11:42:59.831Z,60.49
2019-01-29T11:45:40.864Z,60.50
2019-01-29T11:48:10.178Z,60.36
2019-01-29T11:50:39.440Z,60.69
2019-01-29T11:53:08.944Z,61.13
2019-01-29T11:55:38.225Z,60.85
2019-01-29T11:58:08.012Z,60.79
2019-01-29T12:01:04.600Z,60.92
2019-01-29T12:03:33.944Z,60.59
2019-01-29T12:06:03.331Z,61.10
2019-01-29T12:08:32.844Z,61.49
2019-01-29T12:11:02.206Z,61.10
2019-01-29T12:13:31.486Z,61.90
2019-01-29T12:16:00.793Z,60.91
2019-01-29T12:18:30.082Z,61.10
2019-01-29T12:20:59.392Z,60.58
2019-01-29T12:23:28.689Z,61.61
2019-01-29T12:25:59.202Z,61.15
2019-01-29T12:28:29.486Z,61.49
2019-01-29T12:30:58.735Z,61.98
2019-01-29T12:33:28.041Z,61.17
2019-01-29T12:35:57.319Z,61.75
2019-01-29T12:38:26.566Z,61.73
2019-01-29T12:40:55.838Z,61.34
2019-01-29T12:43:25.159Z,61.89
2019-01-29T12:45:54.687Z,61.71
2019-01-29T12:48:23.978Z,61.23
2019-01-29T12:50:58.158Z,61.25
2019-01-29T12:53:31.801Z,60.80
2019-01-29T12:56:01.074Z,60.59
2019-01-29T12:58:30.363Z,61.45
2019-01-29T13:01:00.637Z,59.96
2019-01-29T13:03:29.879Z,59.49
2019-01-29T13:05:59.345Z,59.07
2019-01-29T13:08:28.739Z,58.04
2019-01-29T13:10:58.010Z,59.38
2019-01-29T13:13:27.319Z,58.84
2019-01-29T13:15:56.603Z,59.23
2019-01-29T13:18:25.858Z,58.45
2019-01-29T13:20:55.094Z,58.63
2019-01-29T13:23:24.368Z,58.52
2019-01-29T13:25:53.635Z,57.82
2019-01-29T13:28:22.934Z,58.06
2019-01-29T13:30:52.214Z,58.75
2019-01-29T13:33:21.851Z,59.12
2019-01-29T13:35:51.128Z,58.75
2019-01-29T13:38:20.395Z,58.35
2019-01-29T13:40:49.695Z,58.24
2019-01-29T13:43:18.949Z,58.48
2019-01-29T13:45:48.954Z,58.08
2019-01-29T13:48:18.644Z,58.02
2019-01-29T13:50:51.919Z,57.54
2019-01-29T13:53:21.232Z,56.61
2019-01-29T13:55:50.539Z,56.62
2019-01-29T13:58:20.114Z,56.04
2019-01-29T14:00:49.377Z,56.45
2019-01-29T14:03:18.844Z,56.23
2019-01-29T14:05:48.203Z,57.31
2019-01-29T14:08:17.478Z,57.07
2019-01-29T14:10:46.843Z,57.34
2019-01-29T14:13:16.118Z,57.21
2019-01-29T14:15:53.587Z,58.28
2019-01-29T14:18:29.532Z,58.75
2019-01-29T14:20:59.912Z,59.36
2019-01-29T14:23:29.443Z,59.24
2019-01-29T14:25:58.743Z,58.37
2019-01-29T14:28:28.141Z,58.83
2019-01-29T14:30:57.524Z,58.23
2019-01-29T14:33:26.795Z,58.69
2019-01-29T14:35:56.071Z,58.50
2019-01-29T14:39:05.678Z,58.33
2019-01-29T14:41:35.199Z,58.72
2019-01-29T14:44:06.485Z,58.47
2019-01-29T14:46:35.780Z,58.00
2019-01-29T14:49:05.558Z,58.33
2019-01-29T14:51:34.845Z,57.48
2019-01-29T14:54:04.176Z,57.57
2019-01-29T14:56:33.469Z,57.58
2019-01-29T14:59:02.799Z,57.42
2019-01-29T15:01:32.051Z,57.25
2019-01-29T15:04:01.514Z,57.15
2019-01-29T15:06:32.441Z,57.09
2019-01-29T15:09:01.767Z,56.71
2019-01-29T15:11:31.122Z,56.84
2019-01-29T15:14:00.428Z,57.14
2019-01-29T15:17:01.087Z,57.10
2019-01-29T15:19:31.596Z,57.74
2019-01-29T15:22:00.875Z,57.71
2019-01-29T15:24:30.161Z,57.37
2019-01-29T15:27:05.328Z,57.29
2019-01-29T15:29:30.416Z,58.11
2019-01-29T15:31:59.711Z,57.91
2019-01-29T15:34:28.966Z,56.83
2019-01-29T15:36:58.302Z,57.49
2019-01-29T15:39:27.553Z,57.32
2019-01-29T15:41:56.818Z,57.50
2019-01-29T15:44:26.095Z,57.05
2019-01-29T15:46:55.358Z,57.71
2019-01-29T15:49:24.646Z,57.28
2019-01-29T15:51:55.407Z,57.91
2019-01-29T15:54:25.022Z,58.39
2019-01-29T15:56:56.903Z,59.04
2019-01-29T15:59:26.775Z,58.21
2019-01-29T16:01:56.265Z,58.94
2019-01-29T16:04:25.564Z,58.27
2019-01-29T16:06:59.522Z,58.84
2019-01-29T16:09:36.392Z,59.12
2019-01-29T16:12:14.329Z,59.18
2019-01-29T16:14:56.206Z,59.60
2019-01-29T16:17:25.485Z,59.96
2019-01-29T16:19:54.737Z,59.64
2019-01-29T16:22:24.013Z,60.11
2019-01-29T16:24:53.297Z,60.35
2019-01-29T16:27:23.134Z,60.64
2019-01-29T16:29:52.430Z,61.16
2019-01-29T16:32:21.675Z,61.42
2019-01-29T16:34:50.974Z,60.93
2019-01-29T16:37:20.227Z,61.36
2019-01-29T16:39:49.498Z,60.40
2019-01-29T16:42:18.750Z,60.13
2019-01-29T16:44:48.029Z,60.69
2019-01-29T16:47:18.387Z,60.76
2019-01-29T16:49:47.719Z,60.28
2019-01-29T16:52:16.978Z,60.83
2019-01-29T16:54:46.411Z,61.02
2019-01-29T16:57:15.862Z,61.01
2019-01-29T16:59:45.141Z,60.83
2019-01-29T17:02:14.388Z,61.12
2019-01-29T17:04:44.524Z,60.39
2019-01-29T17:07:13.778Z,60.72
2019-01-29T17:09:43.031Z,60.67
2019-01-29T17:12:12.410Z,61.20
2019-01-29T17:14:42.164Z,61.22
2019-01-29T17:17:11.515Z,61.35
2019-01-29T17:19:41.830Z,62.16
2019-01-29T17:22:11.094Z,62.47
2019-01-29T17:24:40.396Z,63.60
2019-01-29T17:27:11.213Z,63.83
2019-01-29T17:29:40.575Z,64.67
2019-01-29T17:32:10.584Z,65.39
2019-01-29T17:34:40.231Z,66.48
2019-01-29T17:37:09.654Z,66.06
2019-01-29T17:39:39.730Z,66.14
2019-01-29T17:42:09.027Z,66.96
2019-01-29T17:44:38.851Z,66.70
2019-01-29T17:47:08.414Z,67.32
2019-01-29T17:52:13.258Z,67.61
2019-01-29T17:54:42.619Z,67.39
2019-01-29T17:57:11.878Z,67.97
2019-01-29T17:59:41.356Z,68.25
2019-01-29T18:02:12.352Z,68.33
2019-01-29T18:04:43.282Z,68.76
2019-01-29T18:07:12.591Z,68.87
2019-01-29T18:09:41.891Z,69.10
2019-01-29T18:12:11.168Z,69.69
2019-01-29T18:14:40.512Z,69.66
2019-01-29T18:17:09.762Z,70.05
2019-01-29T18:19:40.222Z,70.84
2019-01-29T18:22:11.986Z,71.59
2019-01-29T18:24:41.273Z,71.70
2019-01-29T18:27:10.929Z,72.11
2019-01-29T18:29:40.290Z,71.93
2019-01-29T18:32:09.561Z,72.27
2019-01-29T18:34:38.836Z,72.71
2019-01-29T18:37:08.169Z,72.97
2019-01-29T18:39:37.429Z,73.19
2019-01-29T18:42:06.954Z,73.15
2019-01-29T18:44:36.468Z,73.84
2019-01-29T18:47:07.195Z,73.72
2019-01-29T18:49:36.555Z,73.57
2019-01-29T18:52:05.883Z,73.38
2019-01-29T18:54:35.217Z,73.42
2019-01-29T18:57:04.600Z,73.50
2019-01-29T18:59:33.883Z,73.71
2019-01-29T19:02:03.158Z,73.45
2019-01-29T19:04:32.444Z,73.14
2019-01-29T19:07:01.712Z,73.30
2019-01-29T19:09:31.055Z,73.21
2019-01-29T19:12:00.327Z,72.71
2019-01-29T19:14:29.656Z,72.77
2019-01-29T19:16:59.852Z,72.34
2019-01-29T19:19:29.112Z,72.55
2019-01-29T19:21:58.397Z,73.01
2019-01-29T19:24:27.650Z,73.16
2019-01-29T19:26:56.966Z,73.29
2019-01-29T19:29:26.255Z,73.66
2019-01-29T19:31:55.531Z,74.17
2019-01-29T19:34:24.780Z,74.31
2019-01-29T19:36:55.987Z,74.30
2019-01-29T19:39:25.241Z,74.14
2019-01-29T19:41:54.520Z,74.29
2019-01-29T19:44:23.815Z,74.54
2019-01-29T19:46:53.130Z,74.50
2019-01-29T19:49:22.521Z,74.52
2019-01-29T19:51:51.804Z,73.99
2019-01-29T19:54:21.498Z,74.36
2019-01-29T19:56:50.759Z,74.32
2019-01-29T19:59:20.052Z,74.16
2019-01-29T20:01:49.368Z,74.18
2019-01-29T20:04:18.629Z,74.11
2019-01-29T20:06:48.074Z,74.54
2019-01-29T20:09:17.333Z,74.47
2019-01-29T20:11:46.832Z,74.22
2019-01-29T20:14:17.095Z,74.42
2019-01-29T20:16:46.381Z,74.67
2019-01-29T20:19:17.487Z,74.12
2019-01-29T20:21:46.744Z,73.95
2019-01-29T20:24:17.047Z,74.01
2019-01-29T20:26:46.409Z,73.90
2019-01-29T20:29:15.704Z,74.15
2019-01-29T20:31:44.971Z,73.48
2019-01-29T20:34:15.334Z,73.69
2019-01-29T20:36:46.233Z,73.85
2019-01-29T20:39:15.601Z,74.01
2019-01-29T20:41:44.899Z,73.72
2019-01-29T20:44:14.170Z,74.04
2019-01-29T20:46:44.230Z,73.62
2019-01-29T20:49:13.547Z,73.70
2019-01-29T20:51:42.861Z,73.89
2019-01-29T20:54:12.154Z,74.12
2019-01-29T20:56:41.456Z,74.23
2019-01-29T20:59:10.823Z,74.61
2019-01-29T21:01:40.100Z,74.42
2019-01-29T21:04:09.403Z,74.37
2019-01-29T21:06:39.143Z,74.29
2019-01-29T21:09:10.281Z,74.58
2019-01-29T21:11:39.943Z,74.36
2019-01-29T21:14:11.040Z,74.10
2019-01-29T21:16:40.326Z,73.98
2019-01-29T21:19:09.635Z,74.34
2019-01-29T21:21:38.967Z,73.73
2019-01-29T21:24:10.451Z,73.55
2019-01-29T21:26:42.177Z,73.87
2019-01-29T21:29:13.052Z,73.69
2019-01-29T21:31:42.497Z,74.15
2019-01-29T21:34:11.799Z,74.16
2019-01-29T21:36:41.081Z,74.47
2019-01-29T21:39:10.565Z,74.23
2019-01-29T21:41:39.834Z,74.56
2019-01-29T21:44:09.118Z,74.27
2019-01-29T21:46:39.612Z,74.60
2019-01-29T21:49:08.939Z,74.77
2019-01-29T21:51:38.214Z,74.25
2019-01-29T21:54:07.531Z,74.22
2019-01-29T21:56:36.846Z,74.02
2019-01-29T21:59:13.185Z,73.90
2019-01-29T22:01:37.440Z,74.17
2019-01-29T22:04:08.014Z,74.26
2019-01-29T22:06:37.318Z,74.18
2019-01-29T22:09:09.618Z,74.27
2019-01-29T22:11:38.952Z,73.80
2019-01-29T22:14:08.224Z,74.11
2019-01-29T22:16:37.506Z,73.81
2019-01-29T22:19:06.805Z,73.77
2019-01-29T22:21:36.076Z,73.12
2019-01-29T22:24:05.991Z,73.78
2019-01-29T22:26:35.310Z,73.72
2019-01-29T22:29:04.573Z,74.01
2019-01-29T22:31:33.839Z,73.70
2019-01-29T22:34:03.130Z,74.30
2019-01-29T22:36:32.601Z,74.57
2019-01-29T22:39:01.958Z,74.69
2019-01-29T22:41:31.222Z,75.07
2019-01-29T22:44:00.481Z,75.00
2019-01-29T22:46:29.760Z,74.82
2019-01-29T22:48:59.016Z,74.83
2019-01-29T22:51:28.297Z,75.00
2019-01-29T22:53:59.488Z,75.13
2019-01-29T22:56:28.610Z,74.71
2019-01-29T22:58:57.901Z,74.63
2019-01-29T23:01:34.937Z,75.03
2019-01-29T23:04:13.589Z,74.58
2019-01-29T23:06:48.080Z,74.62
2019-01-29T23:09:17.335Z,74.70
2019-01-29T23:11:46.874Z,74.93
2019-01-29T23:14:16.341Z,74.82
2019-01-29T23:16:45.735Z,74.86
2019-01-29T23:19:15.400Z,74.70
2019-01-29T23:21:44.974Z,75.35
2019-01-29T23:24:14.701Z,75.18
2019-01-29T23:26:44.262Z,75.29
2019-01-29T23:29:17.062Z,75.19
2019-01-29T23:31:45.770Z,75.01
2019-01-29T23:34:15.369Z,75.13
2019-01-29T23:36:45.272Z,75.29
2019-01-29T23:39:14.800Z,75.15
2019-01-29T23:41:44.437Z,75.19
2019-01-29T23:44:14.635Z,75.27
2019-01-29T23:46:44.233Z,75.13
2019-01-29T23:49:13.732Z,75.39
2019-01-29T23:51:43.115Z,75.32
2019-01-29T23:54:12.402Z,75.25
2019-01-29T23:56:42.085Z,75.35
2019-01-29T23:59:11.348Z,75.59
